Time;durP1;ratioP1;P1;durP2;ratioP2;P2;SDS_P1;SDS_P2;PMS_P1;PMS_P2;Temp;Humidity;BMP_temperature;BMP_pressure;BME280_temperature;BME280_humidity;BME280_pressure;Samples;Min_cycle;Max_cycle;Signal;HPM_P1;HPM_P2
2022/09/01 00:04:02;;;;;;;6.10;3.67;;;;;;;;;;16888326;29;20181;-83
2022/09/01 00:12:24;;;;;;;5.13;4.63;;;;;;;;;;16887048;28;20189;-83
2022/09/01 00:20:44;;;;;;;4.30;3.90;;;;;;;;;;16886448;28;20283;-84
2022/09/01 00:29:05;;;;;;;3.60;3.30;;;;;;;;;;16887045;29;20177;-83
2022/09/01 00:37:25;;;;;;;5.40;4.63;;;;;;;;;;16885408;29;20201;-83
2022/09/01 00:45:45;;;;;;;5.87;3.90;;;;;;;;;;16888046;29;20955;-83
2022/09/01 00:54:07;;;;;;;4.80;4.07;;;;;;;;;;16885943;29;20224;-83
2022/09/01 01:02:27;;;;;;;4.30;4.00;;;;;;;;;;16886814;28;20295;-83
2022/09/01 01:10:48;;;;;;;5.10;4.60;;;;;;;;;;16886434;28;20170;-83
2022/09/01 01:23:00;;;;;;;3.87;3.57;;;;;;;;;;16885041;29;20676;-82
2022/09/01 01:28:13;;;;;;;4.47;3.90;;;;;;;;;;16883809;29;20243;-82
2022/09/01 01:36:35;;;;;;;4.37;3.80;;;;;;;;;;16883383;28;20217;-83
2022/09/01 01:44:56;;;;;;;6.27;4.43;;;;;;;;;;16886041;28;20669;-83
2022/09/01 01:53:18;;;;;;;4.93;4.53;;;;;;;;;;16893800;28;20202;-83
2022/09/01 02:01:38;;;;;;;5.77;4.20;;;;;;;;;;16893278;28;20256;-83
2022/09/01 02:10:00;;;;;;;7.10;5.67;;;;;;;;;;16893972;29;20641;-83
2022/09/01 02:18:23;;;;;;;4.17;3.73;;;;;;;;;;16893455;29;20244;-83
2022/09/01 02:26:47;;;;;;;5.10;4.33;;;;;;;;;;16892209;29;20208;-83
2022/09/01 02:35:08;;;;;;;5.90;5.30;;;;;;;;;;16892629;29;20201;-83
2022/09/01 02:43:30;;;;;;;4.93;4.37;;;;;;;;;;16892265;29;20178;-83
2022/09/01 02:51:52;;;;;;;4.60;4.20;;;;;;;;;;16890901;29;20238;-82
2022/09/01 03:00:21;;;;;;;5.47;4.30;;;;;;;;;;16891712;28;20359;-83
2022/09/01 03:08:41;;;;;;;4.90;4.40;;;;;;;;;;16892141;29;20161;-83
2022/09/01 03:17:02;;;;;;;5.40;4.93;;;;;;;;;;16889727;29;20205;-82
2022/09/01 03:25:23;;;;;;;4.60;4.20;;;;;;;;;;16890360;29;20232;-83
2022/09/01 03:33:44;;;;;;;6.83;6.23;;;;;;;;;;16889655;29;20208;-83
2022/09/01 03:42:07;;;;;;;9.90;9.07;;;;;;;;;;16891327;29;20529;-83
2022/09/01 03:50:27;;;;;;;10.90;9.90;;;;;;;;;;16888020;29;20204;-83
2022/09/01 03:58:48;;;;;;;12.60;11.88;;;;;;;;;;16889063;28;20281;-82
2022/09/01 04:07:08;;;;;;;19.23;18.10;;;;;;;;;;16886662;29;20181;-82
2022/09/01 04:15:28;;;;;;;27.70;26.40;;;;;;;;;;16888751;29;20666;-82
2022/09/01 04:23:49;;;;;;;67.13;63.93;;;;;;;;;;16888362;29;20228;-82
2022/09/01 04:32:11;;;;;;;43.53;41.40;;;;;;;;;;16887074;29;20385;-81
2022/09/01 04:40:31;;;;;;;555.57;517.40;;;;;;;;;;16885569;29;20213;-83
2022/09/01 04:48:52;;;;;;;529.17;488.33;;;;;;;;;;16886212;29;20213;-83
2022/09/01 04:57:12;;;;;;;570.58;523.75;;;;;;;;;;16885415;28;20245;-83
2022/09/01 05:05:38;;;;;;;661.20;604.92;;;;;;;;;;16887568;29;20629;-84
2022/09/01 05:13:58;;;;;;;1244.88;999.90;;;;;;;;;;16885269;29;20217;-84
2022/09/01 05:22:20;;;;;;;900.70;818.47;;;;;;;;;;16890075;29;20177;-83
2022/09/01 05:30:41;;;;;;;444.15;403.80;;;;;;;;;;16896990;29;20264;-84
2022/09/01 05:39:03;;;;;;;412.85;375.40;;;;;;;;;;16896431;28;20212;-84
2022/09/01 05:47:25;;;;;;;422.40;383.20;;;;;;;;;;16895158;29;20225;-82
2022/09/01 05:55:46;;;;;;;430.30;389.45;;;;;;;;;;16893932;28;20237;-82
2022/09/01 06:04:08;;;;;;;509.50;461.25;;;;;;;;;;16894355;29;20188;-82
2022/09/01 06:12:28;;;;;;;884.33;799.45;;;;;;;;;;16894802;29;20532;-82
2022/09/01 06:20:49;;;;;;;885.15;801.15;;;;;;;;;;16892927;28;20205;-83
2022/09/01 06:29:14;;;;;;;473.70;429.42;;;;;;;;;;16891529;29;20205;-83
2022/09/01 06:37:36;;;;;;;541.60;492.00;;;;;;;;;;16893386;29;20208;-82
2022/09/01 06:46:00;;;;;;;537.67;489.15;;;;;;;;;;16892994;29;20209;-83
2022/09/01 06:54:21;;;;;;;554.53;504.90;;;;;;;;;;16885454;28;20200;-83
2022/09/01 07:02:46;;;;;;;542.15;494.00;;;;;;;;;;16890459;28;20236;-85
2022/09/01 07:11:08;;;;;;;500.98;456.95;;;;;;;;;;16889148;28;20603;-84
2022/09/01 07:19:29;;;;;;;487.35;445.40;;;;;;;;;;16890551;28;20201;-85
2022/09/01 07:27:50;;;;;;;429.30;393.40;;;;;;;;;;16890124;28;20257;-84
2022/09/01 07:36:11;;;;;;;361.45;333.17;;;;;;;;;;16885005;29;20209;-83
2022/09/01 07:44:32;;;;;;;358.30;330.60;;;;;;;;;;16885053;29;20198;-84
2022/09/01 07:52:53;;;;;;;333.50;308.77;;;;;;;;;;16884501;29;20188;-82
2022/09/01 08:01:17;;;;;;;273.95;254.77;;;;;;;;;;16888819;28;20241;-82
2022/09/01 08:09:37;;;;;;;292.38;272.13;;;;;;;;;;16886714;29;20180;-83
2022/09/01 08:17:58;;;;;;;307.67;286.10;;;;;;;;;;16886788;29;20658;-84
2022/09/01 08:26:20;;;;;;;256.38;239.35;;;;;;;;;;16885330;29;20261;-85
2022/09/01 08:34:42;;;;;;;419.35;386.98;;;;;;;;;;16885582;29;20280;-84
2022/09/01 08:43:05;;;;;;;239.80;224.38;;;;;;;;;;16885745;29;20189;-85
2022/09/01 08:51:26;;;;;;;109.65;104.22;;;;;;;;;;16884954;28;20208;-84
2022/09/01 08:59:46;;;;;;;91.45;86.97;;;;;;;;;;16879026;28;20332;-84
2022/09/01 09:08:06;;;;;;;102.60;97.63;;;;;;;;;;16885226;29;20177;-84
2022/09/01 09:16:41;;;;;;;96.85;92.25;;;;;;;;;;16884202;29;20209;-84
2022/09/01 09:25:13;;;;;;;93.75;89.38;;;;;;;;;;16883457;29;20661;-84
2022/09/01 09:33:38;;;;;;;80.15;76.45;;;;;;;;;;16884805;28;20271;-84
2022/09/01 09:42:07;;;;;;;91.72;87.25;;;;;;;;;;16882401;29;20633;-85
2022/09/01 09:50:29;;;;;;;93.90;89.53;;;;;;;;;;16882735;29;20703;-85
2022/09/01 09:58:51;;;;;;;92.95;88.65;;;;;;;;;;16883238;28;20740;-84
2022/09/01 10:07:31;;;;;;;113.90;108.55;;;;;;;;;;16888408;28;20528;-85
2022/09/01 10:15:53;;;;;;;115.57;110.05;;;;;;;;;;16890404;29;20197;-85
2022/09/01 10:24:13;;;;;;;144.40;137.05;;;;;;;;;;16888238;29;20181;-85
2022/09/01 10:32:39;;;;;;;151.35;143.55;;;;;;;;;;16887357;29;20209;-85
2022/09/01 10:41:06;;;;;;;147.57;139.80;;;;;;;;;;16885891;29;20268;-85
2022/09/01 10:49:26;;;;;;;189.48;178.40;;;;;;;;;;16886659;29;20303;-85
2022/09/01 10:57:56;;;;;;;194.45;183.32;;;;;;;;;;16889641;29;20264;-85
2022/09/01 11:06:41;;;;;;;241.40;227.05;;;;;;;;;;16891089;29;20173;-85
2022/09/01 11:15:25;;;;;;;229.45;215.93;;;;;;;;;;16890502;29;20205;-84
2022/09/01 11:23:45;;;;;;;246.98;232.02;;;;;;;;;;16891336;29;20189;-84
2022/09/01 11:32:06;;;;;;;307.30;287.75;;;;;;;;;;16889654;28;20181;-84
2022/09/01 11:40:28;;;;;;;359.08;334.70;;;;;;;;;;16889340;29;20296;-85
2022/09/01 11:48:48;;;;;;;360.58;336.02;;;;;;;;;;16886843;28;20213;-84
2022/09/01 11:57:20;;;;;;;398.00;369.83;;;;;;;;;;16888481;28;20241;-84
2022/09/01 12:05:40;;;;;;;475.75;440.42;;;;;;;;;;16887058;28;20504;-84
2022/09/01 12:14:06;;;;;;;554.15;511.10;;;;;;;;;;16887796;29;20263;-84
2022/09/01 12:22:26;;;;;;;695.42;641.30;;;;;;;;;;16887272;29;20205;-85
2022/09/01 12:30:46;;;;;;;805.88;745.55;;;;;;;;;;16884960;29;20177;-85
2022/09/01 12:39:23;;;;;;;45.42;43.35;;;;;;;;;;16886196;28;20213;-85
2022/09/01 12:47:47;;;;;;;31.63;30.23;;;;;;;;;;16886082;29;20216;-85
2022/09/01 12:56:21;;;;;;;14.05;13.35;;;;;;;;;;16886713;28;20316;-85
2022/09/01 13:04:41;;;;;;;9.13;8.70;;;;;;;;;;16884501;29;20169;-85
2022/09/01 13:13:03;;;;;;;5.55;5.32;;;;;;;;;;16883925;29;20209;-85
2022/09/01 13:21:23;;;;;;;8.05;7.55;;;;;;;;;;16884813;28;20677;-85
2022/09/01 13:29:44;;;;;;;5.30;5.10;;;;;;;;;;16883550;29;20185;-85
2022/09/01 13:38:06;;;;;;;8.85;8.45;;;;;;;;;;16884719;29;20217;-85
2022/09/01 13:46:26;;;;;;;10.15;9.63;;;;;;;;;;16894495;28;20208;-85
2022/09/01 13:54:46;;;;;;;8.55;8.05;;;;;;;;;;16894282;28;20699;-85
2022/09/01 14:03:09;;;;;;;5.22;5.03;;;;;;;;;;16892681;29;20221;-84
2022/09/01 14:11:30;;;;;;;5.10;4.82;;;;;;;;;;16894720;28;20205;-85
2022/09/01 14:19:51;;;;;;;5.00;4.70;;;;;;;;;;16893583;29;20239;-84
2022/09/01 14:28:12;;;;;;;4.00;3.50;;;;;;;;;;16891975;29;20224;-84
2022/09/01 14:36:32;;;;;;;4.20;3.92;;;;;;;;;;16891207;29;20209;-85
2022/09/01 14:44:53;;;;;;;4.38;4.07;;;;;;;;;;16890561;28;20196;-85
2022/09/01 14:53:13;;;;;;;7.88;7.47;;;;;;;;;;16891182;28;20208;-85
2022/09/01 15:01:34;;;;;;;5.03;4.00;;;;;;;;;;16891788;28;20244;-85
2022/09/01 15:09:57;;;;;;;4.43;4.05;;;;;;;;;;16890408;28;20213;-85
2022/09/01 15:18:18;;;;;;;3.05;2.85;;;;;;;;;;16889805;28;20201;-84
2022/09/01 15:26:39;;;;;;;3.60;3.25;;;;;;;;;;16888314;28;20177;-85
2022/09/01 15:35:00;;;;;;;3.53;3.28;;;;;;;;;;16887497;29;20209;-85
2022/09/01 15:43:20;;;;;;;8.20;7.85;;;;;;;;;;16890279;28;20173;-84
2022/09/01 15:51:42;;;;;;;7.65;7.20;;;;;;;;;;16888431;29;20193;-85
2022/09/01 16:00:04;;;;;;;6.95;6.55;;;;;;;;;;16887206;28;20233;-84
2022/09/01 16:08:25;;;;;;;2.80;2.60;;;;;;;;;;16885880;28;20607;-85
2022/09/01 16:17:04;;;;;;;9.65;9.05;;;;;;;;;;16883381;28;20263;-84
2022/09/01 16:25:30;;;;;;;7.60;7.20;;;;;;;;;;16881723;29;20184;-84
2022/09/01 16:33:54;;;;;;;13.65;12.98;;;;;;;;;;16881449;28;20541;-85
2022/09/01 16:42:21;;;;;;;14.87;14.13;;;;;;;;;;16885713;29;20285;-85
2022/09/01 16:50:42;;;;;;;12.60;11.93;;;;;;;;;;16886462;28;20203;-86
2022/09/01 16:59:16;;;;;;;12.97;11.83;;;;;;;;;;16886315;28;20237;-85
2022/09/01 17:08:09;;;;;;;15.53;14.53;;;;;;;;;;16885802;29;20173;-85
2022/09/01 17:16:36;;;;;;;12.90;12.13;;;;;;;;;;16899361;28;20219;-85
2022/09/01 17:25:00;;;;;;;10.97;10.43;;;;;;;;;;16895375;29;20629;-85
2022/09/01 17:33:26;;;;;;;18.67;17.53;;;;;;;;;;16895710;28;20639;-84
2022/09/01 17:41:58;;;;;;;23.43;22.27;;;;;;;;;;16890176;29;20596;-85
2022/09/01 17:50:21;;;;;;;15.87;14.93;;;;;;;;;;16888926;29;20205;-85
2022/09/01 17:58:44;;;;;;;14.17;13.30;;;;;;;;;;16891477;28;20236;-85
2022/09/01 18:07:14;;;;;;;19.80;18.80;;;;;;;;;;16893496;29;20180;-85
2022/09/01 18:15:40;;;;;;;30.13;28.43;;;;;;;;;;16892632;28;20209;-85
2022/09/01 18:24:10;;;;;;;19.90;18.40;;;;;;;;;;16893391;29;20578;-85
2022/09/01 18:32:36;;;;;;;29.23;27.47;;;;;;;;;;16891087;29;20181;-84
2022/09/01 18:41:05;;;;;;;29.50;28.00;;;;;;;;;;16891121;28;20227;-85
2022/09/01 18:49:44;;;;;;;25.37;23.57;;;;;;;;;;16892703;29;20201;-85
2022/09/01 18:58:07;;;;;;;40.67;38.13;;;;;;;;;;16891039;28;20292;-85
2022/09/01 19:06:46;;;;;;;39.37;37.33;;;;;;;;;;16887333;29;20189;-84
2022/09/01 19:15:13;;;;;;;32.83;30.77;;;;;;;;;;16889437;29;20209;-85
2022/09/01 19:23:40;;;;;;;34.33;31.63;;;;;;;;;;16890461;29;20188;-85
2022/09/01 19:32:04;;;;;;;28.37;26.17;;;;;;;;;;16890030;28;20189;-86
2022/09/01 19:40:29;;;;;;;29.53;27.60;;;;;;;;;;16888279;28;20660;-85
2022/09/01 19:48:58;;;;;;;32.00;29.63;;;;;;;;;;16888823;28;20208;-85
2022/09/01 19:57:25;;;;;;;39.93;37.70;;;;;;;;;;16888013;28;20323;-85
2022/09/01 20:05:54;;;;;;;29.60;27.90;;;;;;;;;;16888090;28;20231;-86
2022/09/01 20:14:29;;;;;;;29.63;27.63;;;;;;;;;;16887753;29;20199;-86
2022/09/01 20:22:57;;;;;;;44.97;42.40;;;;;;;;;;16885921;29;20189;-85
2022/09/01 20:31:21;;;;;;;43.53;41.30;;;;;;;;;;16886713;29;20201;-85
2022/09/01 20:40:00;;;;;;;24.43;22.67;;;;;;;;;;16885305;28;20201;-85
2022/09/01 20:48:25;;;;;;;26.10;24.30;;;;;;;;;;16885409;29;20209;-86
2022/09/01 20:56:49;;;;;;;26.13;24.27;;;;;;;;;;16885463;28;20233;-85
2022/09/01 21:05:28;;;;;;;29.90;27.57;;;;;;;;;;16884157;28;20592;-85
2022/09/01 21:14:07;;;;;;;18.73;17.50;;;;;;;;;;16885130;29;20614;-85
2022/09/01 21:22:28;;;;;;;18.23;16.93;;;;;;;;;;16883467;28;20205;-84
2022/09/01 21:30:50;;;;;;;16.83;15.53;;;;;;;;;;16883135;29;20624;-85
2022/09/01 21:39:11;;;;;;;18.47;16.97;;;;;;;;;;16884205;29;20213;-85
2022/09/01 21:47:32;;;;;;;20.10;18.57;;;;;;;;;;16882532;29;20205;-85
2022/09/01 21:55:53;;;;;;;17.83;16.57;;;;;;;;;;16884810;28;20237;-85
2022/09/01 22:04:17;;;;;;;14.53;13.60;;;;;;;;;;16889604;28;20182;-85
2022/09/01 22:12:38;;;;;;;18.17;17.00;;;;;;;;;;16894428;29;20429;-84
2022/09/01 22:21:03;;;;;;;16.90;16.00;;;;;;;;;;16890895;29;20240;-85
2022/09/01 22:29:24;;;;;;;31.87;30.33;;;;;;;;;;16891728;28;20181;-84
2022/09/01 22:37:45;;;;;;;28.03;26.53;;;;;;;;;;16892655;29;20204;-84
2022/09/01 22:46:05;;;;;;;24.87;23.63;;;;;;;;;;16892464;28;20258;-84
2022/09/01 22:54:26;;;;;;;29.50;27.50;;;;;;;;;;16891565;28;20213;-83
2022/09/01 23:02:46;;;;;;;19.00;17.83;;;;;;;;;;16889068;28;20173;-84
2022/09/01 23:11:06;;;;;;;29.27;27.77;;;;;;;;;;16889985;29;20302;-84
2022/09/01 23:19:27;;;;;;;26.60;24.90;;;;;;;;;;16889985;29;20284;-84
2022/09/01 23:27:47;;;;;;;32.47;30.80;;;;;;;;;;16889669;28;20609;-84
2022/09/01 23:36:09;;;;;;;26.67;25.30;;;;;;;;;;16890177;28;20248;-84
2022/09/01 23:44:29;;;;;;;22.90;21.70;;;;;;;;;;16889601;29;20645;-83
2022/09/01 23:52:50;;;;;;;26.63;25.23;;;;;;;;;;16888358;28;20201;-84
